Akraberg, Faroe Islands

2:25 AM WEST on July 28, 2016 (GMT +0100)
Vagar | | Change Station

Elev 279 ft 62.07 °N, 7.28 °W | Updated 5 minutes ago

Mostly Cloudy
Mostly Cloudy
50 °F
Feels Like 50 °F
N
0
Wind Variable Wind from North

Today
High -- | Low -- °F
--% Chance of Precip.
Yesterday
High -- | Low -- °F
Precip. -- in
Pressure 29.68 in
Visibility 6.2 miles
Clouds Few 300 ft
Mostly Cloudy 4000 ft
Dew Point 50 °F
Humidity 100%
Rainfall 0.00 in
Snow Depth Not available.
4:48 AM 10:16 PM
Last Quarter, 37% visible
METAR EKVG 280120Z AUTO 00000KT 9999NDV FEW003/// BKN040/// 10/10 Q1005
Pressure 29.68 in
Visibility 6.2 miles
Clouds Few 300 ft
Mostly Cloudy 4000 ft
Dew Point 50 °F
Humidity 100%
Rainfall 0.00 in
Snow Depth Not available.
4:48 AM 10:16 PM
Last Quarter, 37% visible
METAR EKVG 280120Z AUTO 00000KT 9999NDV FEW003/// BKN040/// 10/10 Q1005

10-Day Weather Forecast

No radar image for this location.
×

Almanac

Astronomy

Jul. 28, 2016 Rise Set
Actual Time
Civil Twilight
Nautical Twilight
Astronomical Twilight
Moon
Length of Visible Light
Length of Day
Tomorrow will be .
, % of the Moon is Illuminated

Today's Extremes

Country Highs Country Lows

Community

WunderPhotos

Upload Photos

1,928,002 photos uploaded!

WunderBlog® & News

Nearby

Air Quality

  Air Quality AQ Index Pollutant
Not available.

Snow Depth

Station Depth Elevation

Earthquake Activity

City Distance Mag. Time & Date
Minimum magnitude displayed is 2.5.

Coastal Water Temperatures

Place Temperature

Stations

Nearby Weather Stations

Station Location Temp. Windchill Dew Point Humidity Wind Precip. Elev Updated Type